Unser Flugplatzteam

Segelflugzeugschlepp am Flugplatz Konstanz

Unsere freundlichen Mitarbeiter stehen Ihnen gerne mit Rat und Tat zur Seite:

Robert Leitner

Flugleiter, Landesbeauftragter für Luftaufsicht am Verkehrlandeplatz Konstanz

Minky Schweizer

Flugleiterin

Live am Platz

Die Bilder unserer Webcams werden alle 5 Minuten aktualisiert.

Sonnenaufgang:

05:48 UTC / 07:48 Lokal

Sonnenuntergang:

16:27 UTC / 18:27 Lokal

METAR (20.10.2020 05:20 UTC):

EDNY 200520Z AUTO 07003KT 3900 OVC002/// 03/02 Q1019
LIFR

TAF (19.10.2020 23:00 UTC):

TAF EDNY 192300Z 2000/2024 VRB03KT CAVOK TEMPO 2002/2008 0400 FG OVC001 TEMPO 2008/2010 BKN004

Alle Angaben unverbindlich und ohne Gewähr. Zeiten genähert.

Für den Verkehrslandeplatz Konstanz werden keine offiziellen Wetterinformationen ausgegeben. Daher werden zur Orientierung Daten des nahegelegenen Flughafens Friedrichshafen dargestellt.